SWA1377 KCLE-KMCO
Flight info
| Callsign | SWA1377 |
|---|---|
| Flight time | 2h 10m |
| Altitude | 38000 |
| Route | CAVVS5 APE Q149 BURGG IRQ WHYYT GRNCH5 |
| Aircraft | B737/M-SADE2E3GIJ4RWZ/LB1D1 |
Departure
| Time | 2026-04-22 06:53 |
|---|---|
| Airport | Cleveland Hopkins International Airport (KCLE) |
Arrival
| Time | 2026-04-22 09:04 |
|---|---|
| Airport | Orlando International Airport (KMCO) |
| Time | Latitude | Longitude | Altitude | Speed | Heading |
|---|---|---|---|---|---|
| 2026-04-22 06:23 | 41.41137 | -81.84232 | 800 ft | 0 kts | 94° |
| 2026-04-22 06:46 | 41.41138 | -81.84235 | 800 ft | 1 kts | 94° |
| 2026-04-22 06:46 | 41.41139 | -81.84254 | 800 ft | 2 kts | 94° |
| 2026-04-22 06:46 | 41.41140 | -81.84274 | 800 ft | 2 kts | 94° |
| 2026-04-22 06:46 | 41.41141 | -81.84293 | 800 ft | 2 kts | 94° |
| 2026-04-22 06:47 | 41.41142 | -81.84305 | 800 ft | 1 kts | 79° |
| 2026-04-22 06:47 | 41.41135 | -81.84316 | 800 ft | 1 kts | 17° |
| 2026-04-22 06:47 | 41.41128 | -81.84316 | 800 ft | 0 kts | 352° |
| 2026-04-22 06:47 | 41.41124 | -81.84316 | 800 ft | 0 kts | 358° |
| 2026-04-22 06:50 | 41.41130 | -81.84316 | 800 ft | 3 kts | 358° |
| 2026-04-22 06:51 | 41.41175 | -81.84324 | 800 ft | 9 kts | 347° |
| 2026-04-22 06:51 | 41.41248 | -81.84309 | 800 ft | 12 kts | 38° |
| 2026-04-22 06:51 | 41.41308 | -81.84219 | 800 ft | 12 kts | 51° |
| 2026-04-22 06:51 | 41.41360 | -81.84139 | 800 ft | 10 kts | 25° |
| 2026-04-22 06:52 | 41.41428 | -81.84148 | 800 ft | 9 kts | 352° |
| 2026-04-22 06:52 | 41.41484 | -81.84164 | 800 ft | 8 kts | 320° |
| 2026-04-22 06:52 | 41.41510 | -81.84232 | 800 ft | 10 kts | 245° |
| 2026-04-22 06:52 | 41.41429 | -81.84363 | 800 ft | 39 kts | 228° |
| 2026-04-22 06:53 | 41.41109 | -81.84871 | 800 ft | 103 kts | 232° |
| 2026-04-22 06:53 | 41.40519 | -81.85810 | 801 ft | 159 kts | 229° |
| 2026-04-22 06:53 | 41.39764 | -81.87029 | 1217 ft | 173 kts | 230° |
| 2026-04-22 06:53 | 41.39041 | -81.88258 | 1982 ft | 170 kts | 231° |
| 2026-04-22 06:54 | 41.38247 | -81.89413 | 2562 ft | 172 kts | 214° |
| 2026-04-22 06:54 | 41.37177 | -81.90170 | 3076 ft | 180 kts | 199° |
| 2026-04-22 06:54 | 41.35979 | -81.90713 | 3635 ft | 188 kts | 198° |
| 2026-04-22 06:54 | 41.34703 | -81.91289 | 4073 ft | 205 kts | 198° |
| 2026-04-22 06:55 | 41.33300 | -81.91898 | 4440 ft | 224 kts | 193° |
| 2026-04-22 06:55 | 41.31707 | -81.92161 | 4901 ft | 242 kts | 187° |
| 2026-04-22 06:55 | 41.30046 | -81.92611 | 5611 ft | 250 kts | 195° |
| 2026-04-22 06:55 | 41.28344 | -81.93277 | 6054 ft | 258 kts | 197° |
| 2026-04-22 06:56 | 41.26640 | -81.93979 | 6015 ft | 255 kts | 198° |
| 2026-04-22 06:56 | 41.24975 | -81.94677 | 6013 ft | 252 kts | 198° |
| 2026-04-22 06:56 | 41.23298 | -81.95388 | 6017 ft | 252 kts | 199° |
| 2026-04-22 06:56 | 41.21625 | -81.96101 | 6019 ft | 252 kts | 199° |
| 2026-04-22 06:57 | 41.19962 | -81.96812 | 6022 ft | 252 kts | 199° |
| 2026-04-22 06:57 | 41.18316 | -81.97594 | 6117 ft | 263 kts | 203° |
| 2026-04-22 06:57 | 41.16579 | -81.98533 | 7137 ft | 269 kts | 204° |
| 2026-04-22 06:57 | 41.14917 | -81.99414 | 8474 ft | 261 kts | 204° |
| 2026-04-22 06:58 | 41.13280 | -82.00283 | 9568 ft | 260 kts | 204° |
| 2026-04-22 06:58 | 41.11619 | -82.01165 | 10572 ft | 262 kts | 204° |
| 2026-04-22 06:58 | 41.09875 | -82.02093 | 11131 ft | 282 kts | 204° |
| 2026-04-22 06:58 | 41.08015 | -82.03082 | 11678 ft | 300 kts | 204° |
| 2026-04-22 06:59 | 41.06073 | -82.04110 | 12522 ft | 308 kts | 204° |
| 2026-04-22 06:59 | 41.04087 | -82.05163 | 13392 ft | 314 kts | 204° |
| 2026-04-22 06:59 | 41.02074 | -82.06229 | 14252 ft | 319 kts | 204° |
| 2026-04-22 06:59 | 40.99995 | -82.07328 | 15107 ft | 325 kts | 204° |
| 2026-04-22 07:00 | 40.97917 | -82.08427 | 15908 ft | 330 kts | 204° |
| 2026-04-22 07:00 | 40.95787 | -82.09554 | 16708 ft | 335 kts | 204° |
| 2026-04-22 07:00 | 40.93661 | -82.10806 | 17520 ft | 339 kts | 207° |
| 2026-04-22 07:00 | 40.91565 | -82.12143 | 18325 ft | 342 kts | 208° |
| 2026-04-22 07:01 | 40.89460 | -82.13464 | 19083 ft | 345 kts | 207° |
| 2026-04-22 07:01 | 40.87296 | -82.14796 | 19818 ft | 350 kts | 207° |
| 2026-04-22 07:01 | 40.85091 | -82.16145 | 20593 ft | 352 kts | 207° |
| 2026-04-22 07:01 | 40.82879 | -82.17506 | 21302 ft | 356 kts | 207° |
| 2026-04-22 07:02 | 40.80643 | -82.18900 | 21959 ft | 360 kts | 208° |
| 2026-04-22 07:02 | 40.78373 | -82.20325 | 22593 ft | 365 kts | 208° |
| 2026-04-22 07:02 | 40.76073 | -82.21757 | 23201 ft | 369 kts | 207° |
| 2026-04-22 07:02 | 40.73744 | -82.23199 | 23786 ft | 374 kts | 207° |
| 2026-04-22 07:03 | 40.71375 | -82.24667 | 24330 ft | 379 kts | 207° |
| 2026-04-22 07:03 | 40.68996 | -82.26144 | 24873 ft | 384 kts | 208° |
| 2026-04-22 07:03 | 40.66584 | -82.27647 | 25465 ft | 387 kts | 208° |
| 2026-04-22 07:03 | 40.64160 | -82.29160 | 26093 ft | 388 kts | 208° |
| 2026-04-22 07:04 | 40.61734 | -82.30662 | 26624 ft | 392 kts | 207° |
| 2026-04-22 07:04 | 40.59242 | -82.32177 | 27112 ft | 396 kts | 207° |
| 2026-04-22 07:04 | 40.56738 | -82.33712 | 27614 ft | 399 kts | 207° |
| 2026-04-22 07:04 | 40.54219 | -82.35274 | 28115 ft | 402 kts | 207° |
| 2026-04-22 07:05 | 40.51712 | -82.36830 | 28536 ft | 407 kts | 208° |
| 2026-04-22 07:05 | 40.49140 | -82.38433 | 28948 ft | 411 kts | 208° |
| 2026-04-22 07:05 | 40.46558 | -82.40030 | 29369 ft | 415 kts | 207° |
| 2026-04-22 07:05 | 40.43949 | -82.41619 | 29833 ft | 418 kts | 207° |
| 2026-04-22 07:06 | 40.41295 | -82.43216 | 30246 ft | 421 kts | 207° |
| 2026-04-22 07:06 | 40.38654 | -82.44827 | 30637 ft | 424 kts | 207° |
| 2026-04-22 07:06 | 40.35980 | -82.46465 | 31020 ft | 427 kts | 208° |
| 2026-04-22 07:06 | 40.33316 | -82.48090 | 31451 ft | 428 kts | 208° |
| 2026-04-22 07:07 | 40.30616 | -82.49743 | 31808 ft | 431 kts | 207° |
| 2026-04-22 07:07 | 40.27866 | -82.51411 | 32140 ft | 435 kts | 208° |
| 2026-04-22 07:07 | 40.25137 | -82.53062 | 32593 ft | 434 kts | 208° |
| 2026-04-22 07:07 | 40.22429 | -82.54710 | 33103 ft | 432 kts | 207° |
| 2026-04-22 07:08 | 40.19736 | -82.56361 | 33548 ft | 431 kts | 208° |
| 2026-04-22 07:08 | 40.16919 | -82.57783 | 33888 ft | 436 kts | 199° |
| 2026-04-22 07:08 | 40.13906 | -82.58292 | 34334 ft | 441 kts | 185° |
| 2026-04-22 07:08 | 40.10874 | -82.58039 | 34707 ft | 444 kts | 179° |
| 2026-04-22 07:09 | 40.07829 | -82.57602 | 35161 ft | 442 kts | 179° |
| 2026-04-22 07:09 | 40.04770 | -82.57192 | 35609 ft | 439 kts | 180° |
| 2026-04-22 07:09 | 40.01751 | -82.56886 | 35964 ft | 437 kts | 181° |
| 2026-04-22 07:09 | 39.98765 | -82.56641 | 36200 ft | 439 kts | 182° |
| 2026-04-22 07:10 | 39.95712 | -82.56430 | 36405 ft | 441 kts | 181° |
| 2026-04-22 07:10 | 39.92650 | -82.56188 | 36636 ft | 443 kts | 181° |
| 2026-04-22 07:10 | 39.89599 | -82.55889 | 36946 ft | 442 kts | 180° |
| 2026-04-22 07:10 | 39.86541 | -82.55558 | 37247 ft | 442 kts | 179° |
| 2026-04-22 07:11 | 39.83481 | -82.55122 | 37439 ft | 445 kts | 179° |
| 2026-04-22 07:11 | 39.80439 | -82.54672 | 37618 ft | 447 kts | 179° |
| 2026-04-22 07:11 | 39.77352 | -82.54191 | 37774 ft | 449 kts | 179° |
| 2026-04-22 07:11 | 39.74259 | -82.53745 | 38007 ft | 449 kts | 179° |
| 2026-04-22 07:12 | 39.71192 | -82.53294 | 38082 ft | 443 kts | 178° |
| 2026-04-22 07:12 | 39.68191 | -82.52833 | 38080 ft | 428 kts | 179° |
| 2026-04-22 07:12 | 39.65274 | -82.52369 | 38086 ft | 415 kts | 178° |
| 2026-04-22 07:13 | 39.59604 | -82.51467 | 38075 ft | 412 kts | 180° |
| 2026-04-22 07:13 | 39.53884 | -82.50800 | 38075 ft | 418 kts | 180° |
| 2026-04-22 07:14 | 39.48109 | -82.50058 | 38080 ft | 418 kts | 179° |
| 2026-04-22 07:14 | 39.42315 | -82.49258 | 38083 ft | 420 kts | 179° |
| 2026-04-22 07:15 | 39.36557 | -82.48570 | 38089 ft | 418 kts | 180° |
| 2026-04-22 07:15 | 39.30727 | -82.47943 | 38090 ft | 421 kts | 179° |
| 2026-04-22 07:16 | 39.24976 | -82.47012 | 38091 ft | 418 kts | 178° |
| 2026-04-22 07:16 | 39.19264 | -82.46077 | 38091 ft | 419 kts | 179° |
| 2026-04-22 07:17 | 39.13441 | -82.45311 | 38096 ft | 422 kts | 180° |
| 2026-04-22 07:17 | 39.07641 | -82.44659 | 38111 ft | 417 kts | 180° |
| 2026-04-22 07:18 | 39.01895 | -82.43828 | 38113 ft | 421 kts | 179° |
| 2026-04-22 07:18 | 38.96152 | -82.42997 | 38112 ft | 412 kts | 181° |
| 2026-04-22 07:19 | 38.90523 | -82.42206 | 38111 ft | 407 kts | 182° |
| 2026-04-22 07:19 | 38.84911 | -82.41544 | 38117 ft | 404 kts | 184° |
| 2026-04-22 07:20 | 38.79328 | -82.40873 | 38126 ft | 406 kts | 182° |
| 2026-04-22 07:20 | 38.73731 | -82.40169 | 38139 ft | 404 kts | 182° |
| 2026-04-22 07:21 | 38.68131 | -82.39346 | 38146 ft | 409 kts | 182° |
| 2026-04-22 07:21 | 38.62511 | -82.38532 | 38143 ft | 408 kts | 181° |
| 2026-04-22 07:22 | 38.56940 | -82.37820 | 38144 ft | 400 kts | 183° |
| 2026-04-22 07:22 | 38.51349 | -82.37131 | 38147 ft | 407 kts | 183° |
| 2026-04-22 07:23 | 38.45752 | -82.36460 | 38145 ft | 404 kts | 182° |
| 2026-04-22 07:23 | 38.40159 | -82.35754 | 38145 ft | 408 kts | 182° |
| 2026-04-22 07:24 | 38.34594 | -82.34969 | 38147 ft | 404 kts | 182° |
| 2026-04-22 07:24 | 38.28996 | -82.34241 | 38148 ft | 405 kts | 182° |
| 2026-04-22 07:25 | 38.23402 | -82.33482 | 38147 ft | 403 kts | 182° |
| 2026-04-22 07:25 | 38.17842 | -82.32785 | 38147 ft | 406 kts | 183° |
| 2026-04-22 07:26 | 38.12196 | -82.32081 | 38146 ft | 414 kts | 182° |
| 2026-04-22 07:26 | 38.06531 | -82.31340 | 38147 ft | 411 kts | 182° |
| 2026-04-22 07:27 | 38.00927 | -82.30579 | 38170 ft | 403 kts | 182° |
| 2026-04-22 07:27 | 37.95316 | -82.29787 | 38186 ft | 407 kts | 181° |
| 2026-04-22 07:28 | 37.86965 | -82.28621 | 38202 ft | 407 kts | 183° |
| 2026-04-22 07:28 | 37.81340 | -82.27950 | 38201 ft | 408 kts | 182° |
| 2026-04-22 07:29 | 37.75740 | -82.27216 | 38201 ft | 404 kts | 182° |
| 2026-04-22 07:29 | 37.70191 | -82.26517 | 38201 ft | 403 kts | 182° |
| 2026-04-22 07:30 | 37.64617 | -82.25845 | 38199 ft | 404 kts | 182° |
| 2026-04-22 07:30 | 37.59050 | -82.25132 | 38200 ft | 406 kts | 182° |
| 2026-04-22 07:31 | 37.53410 | -82.24438 | 38207 ft | 408 kts | 182° |
| 2026-04-22 07:31 | 37.47797 | -82.23786 | 38213 ft | 406 kts | 183° |
| 2026-04-22 07:32 | 37.42181 | -82.23067 | 38222 ft | 411 kts | 181° |
| 2026-04-22 07:32 | 37.36585 | -82.22279 | 38236 ft | 402 kts | 181° |
| 2026-04-22 07:33 | 37.30998 | -82.21456 | 38244 ft | 405 kts | 182° |
| 2026-04-22 07:33 | 37.25383 | -82.20703 | 38254 ft | 411 kts | 182° |
| 2026-04-22 07:34 | 37.19762 | -82.19974 | 38253 ft | 405 kts | 182° |
| 2026-04-22 07:34 | 37.14156 | -82.19274 | 38252 ft | 408 kts | 182° |
| 2026-04-22 07:35 | 37.08555 | -82.18653 | 38250 ft | 406 kts | 183° |
| 2026-04-22 07:35 | 37.02955 | -82.17942 | 38252 ft | 405 kts | 182° |
| 2026-04-22 07:36 | 36.97301 | -82.17163 | 38252 ft | 414 kts | 183° |
| 2026-04-22 07:36 | 36.91594 | -82.16395 | 38252 ft | 414 kts | 183° |
| 2026-04-22 07:37 | 36.85878 | -82.15620 | 38253 ft | 412 kts | 183° |
| 2026-04-22 07:37 | 36.80222 | -82.14886 | 38254 ft | 412 kts | 183° |
| 2026-04-22 07:38 | 36.74527 | -82.14132 | 38254 ft | 412 kts | 183° |
| 2026-04-22 07:38 | 36.68853 | -82.13385 | 38255 ft | 411 kts | 184° |
| 2026-04-22 07:39 | 36.63173 | -82.12640 | 38256 ft | 413 kts | 183° |
| 2026-04-22 07:39 | 36.57518 | -82.11932 | 38255 ft | 410 kts | 183° |
| 2026-04-22 07:40 | 36.51868 | -82.11255 | 38255 ft | 412 kts | 184° |
| 2026-04-22 07:40 | 36.46185 | -82.10574 | 38255 ft | 410 kts | 183° |
| 2026-04-22 07:41 | 36.40524 | -82.09830 | 38256 ft | 413 kts | 183° |
| 2026-04-22 07:41 | 36.34843 | -82.09094 | 38256 ft | 414 kts | 184° |
| 2026-04-22 07:42 | 36.29145 | -82.08396 | 38256 ft | 409 kts | 184° |
| 2026-04-22 07:42 | 36.23468 | -82.07680 | 38255 ft | 411 kts | 184° |
| 2026-04-22 07:43 | 36.17838 | -82.06982 | 38257 ft | 410 kts | 183° |
| 2026-04-22 07:43 | 36.12184 | -82.06269 | 38261 ft | 413 kts | 184° |
| 2026-04-22 07:44 | 36.06479 | -82.05597 | 38272 ft | 411 kts | 184° |
| 2026-04-22 07:44 | 36.00830 | -82.04935 | 38281 ft | 411 kts | 183° |
| 2026-04-22 07:45 | 35.95136 | -82.04206 | 38281 ft | 412 kts | 183° |
| 2026-04-22 07:45 | 35.89487 | -82.03516 | 38278 ft | 410 kts | 184° |
| 2026-04-22 07:46 | 35.83808 | -82.02793 | 38276 ft | 412 kts | 183° |
| 2026-04-22 07:46 | 35.78174 | -82.02115 | 38276 ft | 411 kts | 184° |
| 2026-04-22 07:47 | 35.72473 | -82.01405 | 38276 ft | 411 kts | 184° |
| 2026-04-22 07:47 | 35.66839 | -82.00710 | 38277 ft | 410 kts | 184° |
| 2026-04-22 07:48 | 35.61189 | -82.00024 | 38276 ft | 409 kts | 184° |
| 2026-04-22 07:48 | 35.55521 | -81.99346 | 38275 ft | 411 kts | 183° |
| 2026-04-22 07:49 | 35.49874 | -81.98628 | 38274 ft | 411 kts | 183° |
| 2026-04-22 07:49 | 35.44194 | -81.97887 | 38273 ft | 411 kts | 183° |
| 2026-04-22 07:50 | 35.41365 | -81.97523 | 38382 ft | 411 kts | 183° |
| 2026-04-22 07:50 | 35.38496 | -81.97166 | 38491 ft | 416 kts | 183° |
| 2026-04-22 07:50 | 35.35645 | -81.96805 | 38641 ft | 418 kts | 183° |
| 2026-04-22 07:50 | 35.32751 | -81.96469 | 38767 ft | 421 kts | 184° |
| 2026-04-22 07:51 | 35.29810 | -81.96127 | 38876 ft | 424 kts | 183° |
| 2026-04-22 07:51 | 35.26907 | -81.95792 | 39103 ft | 424 kts | 184° |
| 2026-04-22 07:51 | 35.23971 | -81.95451 | 39351 ft | 423 kts | 183° |
| 2026-04-22 07:51 | 35.21043 | -81.95123 | 39438 ft | 426 kts | 184° |
| 2026-04-22 07:52 | 35.18101 | -81.94806 | 39554 ft | 429 kts | 183° |
| 2026-04-22 07:52 | 35.15158 | -81.94441 | 39873 ft | 427 kts | 182° |
| 2026-04-22 07:52 | 35.12220 | -81.94054 | 40035 ft | 427 kts | 183° |
| 2026-04-22 07:52 | 35.09280 | -81.93684 | 40179 ft | 428 kts | 182° |
| 2026-04-22 07:53 | 35.03733 | -81.93024 | 40264 ft | 417 kts | 187° |
| 2026-04-22 07:53 | 35.00909 | -81.93212 | 40265 ft | 402 kts | 195° |
| 2026-04-22 07:53 | 34.98177 | -81.93742 | 40266 ft | 399 kts | 197° |
| 2026-04-22 07:54 | 34.92682 | -81.94716 | 40264 ft | 405 kts | 195° |
| 2026-04-22 07:54 | 34.87116 | -81.95653 | 40265 ft | 410 kts | 195° |
| 2026-04-22 07:55 | 34.81488 | -81.96646 | 40266 ft | 410 kts | 195° |
| 2026-04-22 07:55 | 34.75877 | -81.97676 | 40268 ft | 408 kts | 196° |
| 2026-04-22 07:56 | 34.70269 | -81.98701 | 40271 ft | 408 kts | 196° |
| 2026-04-22 07:56 | 34.64686 | -81.99695 | 40273 ft | 409 kts | 195° |
| 2026-04-22 07:57 | 34.59087 | -82.00688 | 40276 ft | 410 kts | 195° |
| 2026-04-22 07:57 | 34.53462 | -82.01705 | 40278 ft | 408 kts | 195° |
| 2026-04-22 07:58 | 34.47887 | -82.02668 | 40281 ft | 408 kts | 195° |
| 2026-04-22 07:58 | 34.42260 | -82.03651 | 40282 ft | 409 kts | 196° |
| 2026-04-22 07:59 | 34.36650 | -82.04668 | 40283 ft | 410 kts | 196° |
| 2026-04-22 07:59 | 34.31030 | -82.05668 | 40283 ft | 408 kts | 196° |
| 2026-04-22 08:00 | 34.25441 | -82.06664 | 40283 ft | 408 kts | 195° |
| 2026-04-22 08:00 | 34.19873 | -82.07649 | 40283 ft | 409 kts | 195° |
| 2026-04-22 08:01 | 34.14252 | -82.08630 | 40284 ft | 409 kts | 195° |
| 2026-04-22 08:01 | 34.08643 | -82.09628 | 40283 ft | 409 kts | 196° |
| 2026-04-22 08:02 | 34.03061 | -82.10609 | 40283 ft | 409 kts | 195° |
| 2026-04-22 08:02 | 33.97430 | -82.11566 | 40283 ft | 409 kts | 195° |
| 2026-04-22 08:03 | 33.91823 | -82.12528 | 40283 ft | 408 kts | 195° |
| 2026-04-22 08:03 | 33.86236 | -82.13535 | 40288 ft | 408 kts | 196° |
| 2026-04-22 08:04 | 33.80648 | -82.14534 | 40294 ft | 408 kts | 195° |
| 2026-04-22 08:04 | 33.75055 | -82.15479 | 40301 ft | 409 kts | 195° |
| 2026-04-22 08:05 | 33.69403 | -82.16371 | 40301 ft | 413 kts | 192° |
| 2026-04-22 08:05 | 33.63637 | -82.16547 | 40302 ft | 416 kts | 188° |
| 2026-04-22 08:06 | 33.57903 | -82.16724 | 40302 ft | 414 kts | 190° |
| 2026-04-22 08:06 | 33.52159 | -82.16933 | 40302 ft | 415 kts | 189° |
| 2026-04-22 08:07 | 33.46402 | -82.17142 | 40302 ft | 415 kts | 189° |
| 2026-04-22 08:07 | 33.40674 | -82.17343 | 40302 ft | 414 kts | 189° |
| 2026-04-22 08:08 | 33.34920 | -82.17554 | 40300 ft | 415 kts | 189° |
| 2026-04-22 08:08 | 33.29187 | -82.17762 | 40299 ft | 416 kts | 189° |
| 2026-04-22 08:09 | 33.23426 | -82.17965 | 40295 ft | 414 kts | 189° |
| 2026-04-22 08:09 | 33.17662 | -82.18164 | 40290 ft | 415 kts | 189° |
| 2026-04-22 08:10 | 33.11922 | -82.18373 | 40284 ft | 416 kts | 189° |
| 2026-04-22 08:10 | 33.06156 | -82.18573 | 40283 ft | 419 kts | 189° |
| 2026-04-22 08:11 | 33.00310 | -82.18757 | 40283 ft | 425 kts | 188° |
| 2026-04-22 08:11 | 32.94347 | -82.18954 | 40283 ft | 431 kts | 188° |
| 2026-04-22 08:12 | 32.88415 | -82.19155 | 40283 ft | 431 kts | 188° |
| 2026-04-22 08:12 | 32.82436 | -82.19360 | 40283 ft | 429 kts | 188° |
| 2026-04-22 08:13 | 32.76499 | -82.19567 | 40274 ft | 428 kts | 188° |
| 2026-04-22 08:13 | 32.70593 | -82.19772 | 40274 ft | 429 kts | 188° |
| 2026-04-22 08:14 | 32.64653 | -82.19980 | 40274 ft | 429 kts | 188° |
| 2026-04-22 08:14 | 32.58699 | -82.20187 | 40274 ft | 429 kts | 188° |
| 2026-04-22 08:15 | 32.52761 | -82.20393 | 40274 ft | 429 kts | 188° |
| 2026-04-22 08:15 | 32.46802 | -82.20601 | 40274 ft | 429 kts | 188° |
| 2026-04-22 08:16 | 32.40884 | -82.20807 | 40274 ft | 429 kts | 188° |
| 2026-04-22 08:16 | 32.34945 | -82.21013 | 40274 ft | 429 kts | 188° |
| 2026-04-22 08:17 | 32.28975 | -82.21220 | 40274 ft | 429 kts | 188° |
| 2026-04-22 08:17 | 32.23034 | -82.21426 | 40274 ft | 429 kts | 188° |
| 2026-04-22 08:18 | 32.17098 | -82.21631 | 40274 ft | 429 kts | 188° |
| 2026-04-22 08:18 | 32.11154 | -82.21836 | 40274 ft | 429 kts | 188° |
| 2026-04-22 08:19 | 32.05245 | -82.22040 | 40274 ft | 429 kts | 188° |
| 2026-04-22 08:19 | 31.99270 | -82.22246 | 40274 ft | 429 kts | 188° |
| 2026-04-22 08:20 | 31.93339 | -82.22450 | 40274 ft | 429 kts | 188° |
| 2026-04-22 08:20 | 31.87425 | -82.22652 | 40274 ft | 429 kts | 188° |
| 2026-04-22 08:21 | 31.81461 | -82.22857 | 40275 ft | 429 kts | 188° |
| 2026-04-22 08:21 | 31.75509 | -82.23061 | 40279 ft | 429 kts | 188° |
| 2026-04-22 08:22 | 31.69582 | -82.23264 | 40283 ft | 429 kts | 188° |
| 2026-04-22 08:22 | 31.63626 | -82.23467 | 40284 ft | 429 kts | 188° |
| 2026-04-22 08:23 | 31.57704 | -82.23669 | 40284 ft | 429 kts | 188° |
| 2026-04-22 08:23 | 31.51748 | -82.23872 | 40283 ft | 429 kts | 188° |
| 2026-04-22 08:24 | 31.45795 | -82.24075 | 40287 ft | 429 kts | 188° |
| 2026-04-22 08:24 | 31.39878 | -82.24276 | 40292 ft | 429 kts | 188° |
| 2026-04-22 08:25 | 31.33925 | -82.24478 | 40295 ft | 429 kts | 188° |
| 2026-04-22 08:25 | 31.28000 | -82.24679 | 40294 ft | 429 kts | 188° |
| 2026-04-22 08:26 | 31.22035 | -82.24881 | 40293 ft | 429 kts | 188° |
| 2026-04-22 08:26 | 31.16098 | -82.25082 | 40292 ft | 429 kts | 188° |
| 2026-04-22 08:27 | 31.10159 | -82.25282 | 40292 ft | 429 kts | 188° |
| 2026-04-22 08:27 | 31.04228 | -82.25483 | 40292 ft | 429 kts | 188° |
| 2026-04-22 08:28 | 30.98310 | -82.25920 | 40293 ft | 423 kts | 194° |
| 2026-04-22 08:28 | 30.92548 | -82.26864 | 40292 ft | 419 kts | 195° |
| 2026-04-22 08:29 | 30.86788 | -82.27709 | 40292 ft | 416 kts | 196° |
| 2026-04-22 08:29 | 30.81054 | -82.28562 | 40292 ft | 416 kts | 196° |
| 2026-04-22 08:30 | 30.75361 | -82.29405 | 40292 ft | 417 kts | 196° |
| 2026-04-22 08:30 | 30.69603 | -82.30254 | 40291 ft | 418 kts | 196° |
| 2026-04-22 08:31 | 30.63857 | -82.31090 | 40288 ft | 419 kts | 194° |
| 2026-04-22 08:31 | 30.57991 | -82.31113 | 40285 ft | 432 kts | 182° |
| 2026-04-22 08:32 | 30.55023 | -82.30595 | 40284 ft | 437 kts | 179° |
| 2026-04-22 08:32 | 30.49056 | -82.29405 | 40284 ft | 436 kts | 180° |
| 2026-04-22 08:33 | 30.43079 | -82.28265 | 40285 ft | 437 kts | 180° |
| 2026-04-22 08:33 | 30.37142 | -82.27095 | 40285 ft | 437 kts | 179° |
| 2026-04-22 08:34 | 30.31171 | -82.25911 | 40284 ft | 437 kts | 179° |
| 2026-04-22 08:34 | 30.25210 | -82.24724 | 40283 ft | 437 kts | 179° |
| 2026-04-22 08:35 | 30.19208 | -82.23528 | 40098 ft | 441 kts | 179° |
| 2026-04-22 08:35 | 30.16170 | -82.22932 | 38878 ft | 454 kts | 179° |
| 2026-04-22 08:35 | 30.13099 | -82.22324 | 38325 ft | 449 kts | 179° |
| 2026-04-22 08:35 | 30.10046 | -82.21711 | 37788 ft | 444 kts | 179° |
| 2026-04-22 08:36 | 30.07047 | -82.21114 | 37192 ft | 441 kts | 179° |
| 2026-04-22 08:36 | 30.04053 | -82.20524 | 36578 ft | 439 kts | 179° |
| 2026-04-22 08:36 | 30.01036 | -82.19929 | 35932 ft | 438 kts | 179° |
| 2026-04-22 08:36 | 29.98046 | -82.19339 | 35260 ft | 437 kts | 179° |
| 2026-04-22 08:37 | 29.95095 | -82.18757 | 34686 ft | 434 kts | 179° |
| 2026-04-22 08:37 | 29.92146 | -82.18172 | 34190 ft | 429 kts | 179° |
| 2026-04-22 08:37 | 29.89253 | -82.17597 | 33690 ft | 425 kts | 179° |
| 2026-04-22 08:37 | 29.86364 | -82.17020 | 33187 ft | 421 kts | 179° |
| 2026-04-22 08:38 | 29.83500 | -82.16446 | 32685 ft | 417 kts | 179° |
| 2026-04-22 08:38 | 29.80695 | -82.15885 | 32194 ft | 413 kts | 179° |
| 2026-04-22 08:38 | 29.77865 | -82.15321 | 31694 ft | 409 kts | 179° |
| 2026-04-22 08:38 | 29.75122 | -82.14774 | 31209 ft | 405 kts | 179° |
| 2026-04-22 08:39 | 29.72340 | -82.14220 | 30714 ft | 402 kts | 179° |
| 2026-04-22 08:39 | 29.69637 | -82.13683 | 30232 ft | 399 kts | 179° |
| 2026-04-22 08:39 | 29.66932 | -82.13145 | 29747 ft | 395 kts | 179° |
| 2026-04-22 08:39 | 29.64212 | -82.12605 | 29259 ft | 392 kts | 178° |
| 2026-04-22 08:40 | 29.61581 | -82.12082 | 28784 ft | 389 kts | 178° |
| 2026-04-22 08:40 | 29.58929 | -82.11556 | 28305 ft | 386 kts | 178° |
| 2026-04-22 08:40 | 29.56306 | -82.11035 | 27827 ft | 383 kts | 178° |
| 2026-04-22 08:40 | 29.53693 | -82.10517 | 27348 ft | 380 kts | 178° |
| 2026-04-22 08:41 | 29.51125 | -82.10008 | 26877 ft | 378 kts | 178° |
| 2026-04-22 08:41 | 29.48534 | -82.09495 | 26410 ft | 375 kts | 178° |
| 2026-04-22 08:41 | 29.46009 | -82.08996 | 26214 ft | 373 kts | 178° |
| 2026-04-22 08:41 | 29.43400 | -82.08485 | 25859 ft | 380 kts | 178° |
| 2026-04-22 08:42 | 29.40827 | -82.07977 | 25406 ft | 377 kts | 177° |
| 2026-04-22 08:42 | 29.38261 | -82.07468 | 24937 ft | 374 kts | 177° |
| 2026-04-22 08:42 | 29.35709 | -82.06963 | 24466 ft | 371 kts | 177° |
| 2026-04-22 08:42 | 29.33193 | -82.06413 | 23997 ft | 371 kts | 173° |
| 2026-04-22 08:43 | 29.30715 | -82.05579 | 23529 ft | 373 kts | 166° |
| 2026-04-22 08:43 | 29.28364 | -82.04389 | 23059 ft | 376 kts | 158° |
| 2026-04-22 08:43 | 29.26057 | -82.02940 | 22575 ft | 375 kts | 157° |
| 2026-04-22 08:43 | 29.23803 | -82.01530 | 22105 ft | 373 kts | 157° |
| 2026-04-22 08:44 | 29.21512 | -82.00122 | 21624 ft | 371 kts | 157° |
| 2026-04-22 08:44 | 29.19284 | -81.98741 | 21158 ft | 369 kts | 156° |
| 2026-04-22 08:44 | 29.17036 | -81.97339 | 20682 ft | 367 kts | 156° |
| 2026-04-22 08:44 | 29.14803 | -81.95943 | 20207 ft | 365 kts | 156° |
| 2026-04-22 08:45 | 29.12583 | -81.94555 | 19734 ft | 363 kts | 156° |
| 2026-04-22 08:45 | 29.10399 | -81.93188 | 19267 ft | 362 kts | 156° |
| 2026-04-22 08:45 | 29.08220 | -81.91747 | 18799 ft | 361 kts | 152° |
| 2026-04-22 08:45 | 29.06199 | -81.90077 | 18332 ft | 362 kts | 144° |
| 2026-04-22 08:46 | 29.04333 | -81.88148 | 17944 ft | 359 kts | 140° |
| 2026-04-22 08:46 | 29.02527 | -81.86214 | 17623 ft | 353 kts | 141° |
| 2026-04-22 08:46 | 29.00736 | -81.84328 | 17238 ft | 349 kts | 141° |
| 2026-04-22 08:46 | 28.98987 | -81.82449 | 16839 ft | 346 kts | 139° |
| 2026-04-22 08:47 | 28.97379 | -81.80409 | 16431 ft | 346 kts | 131° |
| 2026-04-22 08:47 | 28.95915 | -81.78236 | 16045 ft | 342 kts | 130° |
| 2026-04-22 08:47 | 28.94490 | -81.76125 | 15975 ft | 335 kts | 131° |
| 2026-04-22 08:47 | 28.93050 | -81.74019 | 15993 ft | 342 kts | 131° |
| 2026-04-22 08:48 | 28.91593 | -81.71870 | 15787 ft | 338 kts | 130° |
| 2026-04-22 08:48 | 28.90166 | -81.69756 | 15392 ft | 335 kts | 130° |
| 2026-04-22 08:48 | 28.88752 | -81.67665 | 14960 ft | 334 kts | 130° |
| 2026-04-22 08:48 | 28.87356 | -81.65600 | 14517 ft | 333 kts | 130° |
| 2026-04-22 08:49 | 28.85947 | -81.63517 | 14070 ft | 332 kts | 130° |
| 2026-04-22 08:49 | 28.84542 | -81.61440 | 13630 ft | 331 kts | 130° |
| 2026-04-22 08:49 | 28.83126 | -81.59346 | 13183 ft | 330 kts | 129° |
| 2026-04-22 08:49 | 28.81745 | -81.57306 | 12745 ft | 329 kts | 129° |
| 2026-04-22 08:50 | 28.80332 | -81.55250 | 12385 ft | 324 kts | 133° |
| 2026-04-22 08:50 | 28.78690 | -81.53642 | 12197 ft | 311 kts | 150° |
| 2026-04-22 08:50 | 28.76789 | -81.52509 | 11774 ft | 309 kts | 155° |
| 2026-04-22 08:50 | 28.74867 | -81.51385 | 11373 ft | 307 kts | 154° |
| 2026-04-22 08:51 | 28.72994 | -81.50250 | 10984 ft | 305 kts | 154° |
| 2026-04-22 08:51 | 28.71143 | -81.49138 | 10599 ft | 303 kts | 154° |
| 2026-04-22 08:51 | 28.69291 | -81.48029 | 10214 ft | 301 kts | 154° |
| 2026-04-22 08:51 | 28.67451 | -81.46925 | 9972 ft | 293 kts | 154° |
| 2026-04-22 08:52 | 28.65669 | -81.45856 | 9708 ft | 288 kts | 154° |
| 2026-04-22 08:52 | 28.63919 | -81.44809 | 9340 ft | 286 kts | 154° |
| 2026-04-22 08:52 | 28.62164 | -81.43761 | 8988 ft | 285 kts | 153° |
| 2026-04-22 08:52 | 28.60385 | -81.42843 | 8676 ft | 281 kts | 165° |
| 2026-04-22 08:53 | 28.58497 | -81.42547 | 8550 ft | 268 kts | 177° |
| 2026-04-22 08:53 | 28.56685 | -81.42410 | 8374 ft | 261 kts | 179° |
| 2026-04-22 08:53 | 28.54875 | -81.42397 | 8073 ft | 259 kts | 182° |
| 2026-04-22 08:53 | 28.53086 | -81.42417 | 7784 ft | 257 kts | 181° |
| 2026-04-22 08:54 | 28.51308 | -81.42419 | 7497 ft | 255 kts | 181° |
| 2026-04-22 08:54 | 28.49560 | -81.42421 | 7215 ft | 252 kts | 181° |
| 2026-04-22 08:54 | 28.47813 | -81.42422 | 6934 ft | 250 kts | 181° |
| 2026-04-22 08:54 | 28.46105 | -81.42422 | 6657 ft | 248 kts | 181° |
| 2026-04-22 08:55 | 28.44372 | -81.42423 | 6376 ft | 246 kts | 181° |
| 2026-04-22 08:55 | 28.42679 | -81.42423 | 6101 ft | 244 kts | 181° |
| 2026-04-22 08:55 | 28.40991 | -81.42422 | 5826 ft | 242 kts | 181° |
| 2026-04-22 08:55 | 28.39308 | -81.42423 | 5551 ft | 240 kts | 180° |
| 2026-04-22 08:56 | 28.37667 | -81.42422 | 5282 ft | 238 kts | 180° |
| 2026-04-22 08:56 | 28.36001 | -81.42422 | 5030 ft | 238 kts | 180° |
| 2026-04-22 08:56 | 28.34374 | -81.42422 | 4972 ft | 229 kts | 180° |
| 2026-04-22 08:56 | 28.32772 | -81.42422 | 4743 ft | 230 kts | 180° |
| 2026-04-22 08:57 | 28.31199 | -81.42420 | 4500 ft | 227 kts | 180° |
| 2026-04-22 08:57 | 28.29639 | -81.42419 | 4368 ft | 220 kts | 180° |
| 2026-04-22 08:57 | 28.28124 | -81.42354 | 4175 ft | 219 kts | 171° |
| 2026-04-22 08:57 | 28.26694 | -81.41803 | 3953 ft | 214 kts | 150° |
| 2026-04-22 08:58 | 28.25568 | -81.40772 | 3736 ft | 205 kts | 131° |
| 2026-04-22 08:58 | 28.24817 | -81.39452 | 3509 ft | 196 kts | 112° |
| 2026-04-22 08:58 | 28.24477 | -81.37997 | 3306 ft | 185 kts | 95° |
| 2026-04-22 08:58 | 28.24520 | -81.36594 | 3128 ft | 173 kts | 79° |
| 2026-04-22 08:59 | 28.24867 | -81.35358 | 3009 ft | 155 kts | 64° |
| 2026-04-22 08:59 | 28.25419 | -81.34352 | 2916 ft | 145 kts | 51° |
| 2026-04-22 08:59 | 28.26115 | -81.33572 | 2806 ft | 141 kts | 38° |
| 2026-04-22 08:59 | 28.26953 | -81.32983 | 2666 ft | 140 kts | 25° |
| 2026-04-22 09:00 | 28.27870 | -81.32642 | 2543 ft | 139 kts | 11° |
| 2026-04-22 09:00 | 28.28826 | -81.32545 | 2430 ft | 139 kts | 1° |
| 2026-04-22 09:00 | 28.29797 | -81.32541 | 2282 ft | 140 kts | 0° |
| 2026-04-22 09:00 | 28.30750 | -81.32546 | 2127 ft | 138 kts | 0° |
| 2026-04-22 09:01 | 28.31715 | -81.32561 | 1994 ft | 139 kts | 360° |
| 2026-04-22 09:01 | 28.32675 | -81.32574 | 1812 ft | 138 kts | 360° |
| 2026-04-22 09:01 | 28.33633 | -81.32587 | 1635 ft | 138 kts | 360° |
| 2026-04-22 09:01 | 28.34595 | -81.32600 | 1451 ft | 138 kts | 359° |
| 2026-04-22 09:02 | 28.35549 | -81.32608 | 1280 ft | 138 kts | 1° |
| 2026-04-22 09:02 | 28.36510 | -81.32600 | 1072 ft | 137 kts | 1° |
| 2026-04-22 09:02 | 28.37470 | -81.32611 | 894 ft | 137 kts | 359° |
| 2026-04-22 09:02 | 28.38416 | -81.32650 | 717 ft | 135 kts | 359° |
| 2026-04-22 09:03 | 28.39345 | -81.32651 | 536 ft | 135 kts | 1° |
| 2026-04-22 09:03 | 28.40284 | -81.32650 | 369 ft | 135 kts | 1° |
| 2026-04-22 09:03 | 28.41201 | -81.32660 | 187 ft | 134 kts | 359° |
| 2026-04-22 09:03 | 28.42084 | -81.32671 | 95 ft | 108 kts | 1° |
| 2026-04-22 09:04 | 28.42683 | -81.32674 | 94 ft | 74 kts | 1° |
| 2026-04-22 09:04 | 28.43137 | -81.32683 | 94 ft | 55 kts | 360° |
| 2026-04-22 09:04 | 28.43441 | -81.32686 | 94 ft | 31 kts | 358° |
| 2026-04-22 09:04 | 28.43632 | -81.32663 | 92 ft | 22 kts | 22° |
| 2026-04-22 09:05 | 28.43741 | -81.32555 | 91 ft | 21 kts | 58° |
| 2026-04-22 09:05 | 28.43821 | -81.32418 | 91 ft | 20 kts | 56° |
| 2026-04-22 09:05 | 28.43885 | -81.32277 | 91 ft | 19 kts | 61° |
| 2026-04-22 09:05 | 28.43957 | -81.32137 | 91 ft | 21 kts | 55° |
| 2026-04-22 09:06 | 28.43973 | -81.31973 | 91 ft | 23 kts | 123° |
| 2026-04-22 09:06 | 28.43924 | -81.31808 | 91 ft | 21 kts | 93° |
| 2026-04-22 09:06 | 28.43924 | -81.31615 | 91 ft | 29 kts | 89° |
| 2026-04-22 09:06 | 28.43929 | -81.31356 | 91 ft | 34 kts | 86° |
| 2026-04-22 09:07 | 28.43941 | -81.31084 | 89 ft | 33 kts | 87° |
| 2026-04-22 09:07 | 28.43939 | -81.30837 | 88 ft | 29 kts | 93° |
| 2026-04-22 09:07 | 28.43926 | -81.30615 | 89 ft | 26 kts | 95° |
| 2026-04-22 09:07 | 28.43918 | -81.30424 | 91 ft | 23 kts | 92° |
| 2026-04-22 09:08 | 28.43902 | -81.30266 | 91 ft | 15 kts | 122° |
| 2026-04-22 09:08 | 28.43810 | -81.30255 | 91 ft | 15 kts | 182° |
| 2026-04-22 09:08 | 28.43695 | -81.30290 | 91 ft | 18 kts | 234° |
| 2026-04-22 09:08 | 28.43626 | -81.30398 | 89 ft | 16 kts | 226° |
| 2026-04-22 09:09 | 28.43534 | -81.30459 | 88 ft | 13 kts | 185° |
| 2026-04-22 09:09 | 28.43461 | -81.30418 | 88 ft | 11 kts | 127° |
| 2026-04-22 09:09 | 28.43432 | -81.30338 | 88 ft | 9 kts | 84° |
| 2026-04-22 09:09 | 28.43475 | -81.30294 | 88 ft | 7 kts | 28° |
| 2026-04-22 09:10 | 28.43493 | -81.30283 | 88 ft | 0 kts | 28° |